createdAt,value
2018-12-27T00:01:30.844Z,102139.45
2018-12-27T00:03:59.732Z,102135.45
2018-12-27T00:06:28.520Z,102134.66
2018-12-27T00:08:57.410Z,102132.98
2018-12-27T00:11:26.198Z,102138.05
2018-12-27T00:13:55.093Z,102134.48
2018-12-27T00:16:23.877Z,102130.73
2018-12-27T00:18:52.665Z,102134.35
2018-12-27T00:21:21.454Z,102129.34
2018-12-27T00:23:50.241Z,102122.42
2018-12-27T00:26:19.033Z,102124.06
2018-12-27T00:28:47.817Z,102130.00
2018-12-27T00:31:16.812Z,102124.09
2018-12-27T00:33:45.803Z,102119.04
2018-12-27T00:36:14.796Z,102108.05
2018-12-27T00:38:43.790Z,102110.59
2018-12-27T00:41:12.783Z,102104.53
2018-12-27T00:43:41.776Z,102105.94
2018-12-27T00:46:10.769Z,102102.73
2018-12-27T00:48:39.763Z,102110.64
2018-12-27T00:51:08.753Z,102102.11
2018-12-27T00:53:37.747Z,102105.80
2018-12-27T00:56:06.844Z,102095.88
2018-12-27T00:58:35.836Z,102097.72
2018-12-27T01:01:04.829Z,102099.52
2018-12-27T01:03:34.130Z,102105.41
2018-12-27T01:06:03.018Z,102094.59
2018-12-27T01:08:32.011Z,102100.44
2018-12-27T01:11:01.007Z,102105.02
2018-12-27T01:13:29.998Z,102100.05
2018-12-27T01:15:58.992Z,102103.04
2018-12-27T01:18:29.417Z,102101.59
2018-12-27T01:20:58.516Z,102095.39
2018-12-27T01:23:27.404Z,102092.31
2018-12-27T01:25:56.395Z,102089.77
2018-12-27T01:28:25.392Z,102093.15
2018-12-27T01:30:54.383Z,102094.20
2018-12-27T01:33:23.376Z,102090.73
2018-12-27T01:35:52.369Z,102094.20
2018-12-27T01:38:21.360Z,102098.42
2018-12-27T01:40:50.355Z,102099.27
2018-12-27T01:43:19.350Z,102091.83
2018-12-27T01:45:48.339Z,102094.42
2018-12-27T01:48:17.332Z,102098.73
2018-12-27T01:50:46.324Z,102102.69
2018-12-27T01:53:15.317Z,102095.79
2018-12-27T01:55:44.309Z,102102.44
2018-12-27T01:58:13.303Z,102104.75
2018-12-27T02:00:42.296Z,102105.63
2018-12-27T02:03:11.288Z,102108.66
2018-12-27T02:05:40.283Z,102100.80
2018-12-27T02:08:09.276Z,102107.58
2018-12-27T02:10:38.285Z,102103.40
2018-12-27T02:13:07.262Z,102109.19
2018-12-27T02:15:36.253Z,102110.55
2018-12-27T02:18:05.247Z,102110.30
2018-12-27T02:20:34.239Z,102112.63
2018-12-27T02:23:03.232Z,102111.61
2018-12-27T02:25:32.224Z,102109.86
2018-12-27T02:28:01.324Z,102106.69
2018-12-27T02:30:30.314Z,102100.23
2018-12-27T02:32:59.307Z,102100.63
2018-12-27T02:35:28.307Z,102099.34
2018-12-27T02:37:57.296Z,102098.37
2018-12-27T02:40:26.289Z,102094.16
2018-12-27T02:42:55.279Z,102095.52
2018-12-27T02:45:24.274Z,102096.00
2018-12-27T02:47:53.267Z,102089.84
2018-12-27T02:50:22.257Z,102087.26
2018-12-27T02:52:51.251Z,102089.15
2018-12-27T02:55:20.243Z,102089.28
2018-12-27T02:57:49.236Z,102079.12
2018-12-27T03:00:18.229Z,102079.12
2018-12-27T03:02:47.221Z,102081.69
2018-12-27T03:05:16.214Z,102080.09
2018-12-27T03:07:45.209Z,102075.66
2018-12-27T03:10:14.204Z,102061.23
2018-12-27T03:12:43.193Z,102065.72
2018-12-27T03:15:12.186Z,102064.27
2018-12-27T03:17:41.180Z,102052.79
2018-12-27T03:20:10.172Z,102060.00
2018-12-27T03:22:39.062Z,102065.55
2018-12-27T03:25:08.061Z,102056.09
2018-12-27T03:27:37.049Z,102055.53
2018-12-27T03:30:06.042Z,102054.34
2018-12-27T03:32:35.036Z,102055.52
2018-12-27T03:35:04.030Z,102059.48
2018-12-27T03:37:33.021Z,102058.52
2018-12-27T03:40:02.015Z,102054.91
2018-12-27T03:42:31.007Z,102053.15
2018-12-27T03:44:59.998Z,102055.17
2018-12-27T03:47:28.992Z,102056.23
2018-12-27T03:49:57.986Z,102056.48
2018-12-27T03:52:26.978Z,102049.86
2018-12-27T03:54:55.973Z,102052.53
2018-12-27T03:57:24.964Z,102045.50
2018-12-27T03:59:53.958Z,102051.66
2018-12-27T04:02:22.950Z,102040.54
2018-12-27T04:04:51.948Z,102041.64
2018-12-27T04:07:21.150Z,102043.87
2018-12-27T04:09:50.235Z,102043.00
2018-12-27T04:12:19.228Z,102045.98
2018-12-27T04:14:48.222Z,102050.73
2018-12-27T04:17:17.012Z,102048.92
2018-12-27T04:19:45.696Z,102040.41
2018-12-27T04:22:14.488Z,102040.00
2018-12-27T04:24:43.274Z,102032.31
2018-12-27T04:27:12.061Z,102037.67
2018-12-27T04:29:40.745Z,102030.25
2018-12-27T04:32:09.610Z,102032.53
2018-12-27T04:34:38.530Z,102026.52
2018-12-27T04:37:07.622Z,102025.77
2018-12-27T04:39:36.310Z,102026.95
2018-12-27T04:42:05.096Z,102027.18
2018-12-27T04:44:33.883Z,102020.94
2018-12-27T04:47:02.671Z,102024.10
2018-12-27T04:49:31.461Z,102018.78
2018-12-27T04:52:00.248Z,102015.75
2018-12-27T04:54:29.039Z,102017.46
2018-12-27T04:56:57.824Z,102011.66
2018-12-27T04:59:26.614Z,102013.91
2018-12-27T05:01:55.402Z,102010.95
2018-12-27T05:04:24.092Z,102003.48
2018-12-27T05:06:52.876Z,102008.53
2018-12-27T05:09:21.663Z,101999.53
2018-12-27T05:11:50.451Z,101997.08
2018-12-27T05:14:19.242Z,102007.02
2018-12-27T05:16:48.044Z,101999.63
2018-12-27T05:19:16.713Z,101995.01
2018-12-27T05:21:45.499Z,101993.88
2018-12-27T05:24:14.293Z,101996.86
2018-12-27T05:26:43.077Z,102000.14
2018-12-27T05:29:11.762Z,102002.86
2018-12-27T05:31:40.754Z,102002.11
2018-12-27T05:34:09.649Z,102010.67
2018-12-27T05:36:38.433Z,102018.90
2018-12-27T05:39:07.224Z,102010.90
2018-12-27T05:41:36.216Z,102006.67
2018-12-27T05:44:04.899Z,102004.70
2018-12-27T05:46:33.687Z,102006.81
2018-12-27T05:49:02.476Z,102003.55
2018-12-27T05:51:31.297Z,102003.95
2018-12-27T05:54:00.053Z,102004.55
2018-12-27T05:56:28.841Z,102001.08
2018-12-27T05:58:57.527Z,102000.38
2018-12-27T06:01:26.314Z,102008.17
2018-12-27T06:03:55.102Z,102012.05
2018-12-27T06:06:23.790Z,102009.11
2018-12-27T06:08:52.576Z,102006.91
2018-12-27T06:11:21.466Z,102015.36
2018-12-27T06:13:50.357Z,102011.08
2018-12-27T06:16:19.043Z,102010.69
2018-12-27T06:18:47.833Z,102018.64
2018-12-27T06:21:16.623Z,102019.44
2018-12-27T06:23:45.409Z,102019.38
2018-12-27T06:26:14.094Z,102021.20
2018-12-27T06:28:42.781Z,102012.16
2018-12-27T06:31:11.567Z,102010.63
2018-12-27T06:33:40.355Z,102010.70
2018-12-27T06:36:09.043Z,102016.83
2018-12-27T06:38:37.829Z,102014.56
2018-12-27T06:41:06.619Z,102019.70
2018-12-27T06:43:35.406Z,102010.94
2018-12-27T06:46:04.193Z,102012.13
2018-12-27T06:48:32.981Z,102015.84
2018-12-27T06:51:01.770Z,102015.84
2018-12-27T06:53:30.772Z,102013.28
2018-12-27T06:55:59.551Z,102019.55
2018-12-27T06:58:28.338Z,102017.30
2018-12-27T07:00:57.127Z,102011.09
2018-12-27T07:03:25.915Z,102007.29
2018-12-27T07:05:54.603Z,102009.48
2018-12-27T07:08:23.391Z,102003.45
2018-12-27T07:10:52.077Z,102005.64
2018-12-27T07:13:20.864Z,102000.79
2018-12-27T07:15:49.549Z,102003.98
2018-12-27T07:18:18.337Z,101993.84
2018-12-27T07:20:47.125Z,101980.25
2018-12-27T07:23:15.914Z,101974.12
2018-12-27T07:25:44.607Z,101979.73
2018-12-27T07:28:13.388Z,101980.78
2018-12-27T07:30:42.044Z,101981.91
2018-12-27T07:33:10.862Z,101993.84
2018-12-27T07:35:39.548Z,101994.22
2018-12-27T07:38:08.335Z,102005.09
2018-12-27T07:40:37.226Z,102001.54
2018-12-27T07:43:06.017Z,102002.00
2018-12-27T07:45:34.801Z,101999.06
2018-12-27T07:48:03.589Z,101997.70
2018-12-27T07:50:32.378Z,102001.11
2018-12-27T07:53:01.064Z,102003.98
2018-12-27T07:55:29.855Z,102011.52
2018-12-27T07:57:58.640Z,102002.61
2018-12-27T08:00:27.429Z,102003.67
2018-12-27T08:02:56.318Z,102003.30
2018-12-27T08:05:25.004Z,101998.84
2018-12-27T08:07:53.793Z,102007.29
2018-12-27T08:10:22.479Z,102024.53
2018-12-27T08:12:51.266Z,102011.37
2018-12-27T08:15:19.951Z,102010.92
2018-12-27T08:17:48.738Z,102016.06
2018-12-27T08:20:17.429Z,102011.83
2018-12-27T08:22:46.524Z,102018.53
2018-12-27T08:25:15.096Z,102016.83
2018-12-27T08:27:43.894Z,102019.86
2018-12-27T08:30:12.681Z,102008.12
2018-12-27T08:32:41.468Z,102011.30
2018-12-27T08:35:11.550Z,102011.15
2018-12-27T08:37:40.579Z,102010.92
2018-12-27T08:40:09.369Z,102002.77
2018-12-27T08:42:38.054Z,102002.70
2018-12-27T08:45:06.844Z,102001.56
2018-12-27T08:47:35.528Z,102002.70
2018-12-27T08:50:06.774Z,102002.41
2018-12-27T08:52:35.670Z,102000.79
2018-12-27T08:55:05.304Z,102003.60
2018-12-27T08:57:33.958Z,102000.14
2018-12-27T09:00:02.745Z,102005.58
2018-12-27T09:02:31.542Z,101997.42
2018-12-27T09:05:00.321Z,102003.08
2018-12-27T09:07:29.024Z,102004.44
2018-12-27T09:09:57.795Z,101996.28
2018-12-27T09:12:26.584Z,101997.17
2018-12-27T09:14:55.474Z,101991.12
2018-12-27T09:17:24.165Z,101988.87
2018-12-27T09:19:52.946Z,101991.52
2018-12-27T09:22:21.735Z,101994.45
2018-12-27T09:24:50.522Z,101999.36
2018-12-27T09:27:19.618Z,102000.64
2018-12-27T09:29:48.303Z,101994.17
2018-12-27T09:32:17.091Z,101993.38
2018-12-27T09:34:45.879Z,101992.17
2018-12-27T09:37:14.565Z,101992.78
2018-12-27T09:39:43.354Z,101993.41
2018-12-27T09:42:12.038Z,101991.36
2018-12-27T09:44:40.827Z,101998.77
2018-12-27T09:47:09.923Z,101991.88
2018-12-27T09:49:38.710Z,101992.80
2018-12-27T09:52:07.504Z,101993.85
2018-12-27T09:54:36.392Z,101998.91
2018-12-27T09:57:05.074Z,101990.66
2018-12-27T09:59:33.761Z,101987.94
2018-12-27T10:02:02.550Z,101988.02
2018-12-27T10:04:31.242Z,101975.66
2018-12-27T10:07:00.227Z,101984.91
2018-12-27T10:09:28.914Z,101980.06
2018-12-27T10:11:57.701Z,101972.14
2018-12-27T10:14:26.489Z,101966.42
2018-12-27T10:16:55.380Z,101965.05
2018-12-27T10:19:24.066Z,101955.00
2018-12-27T10:21:52.856Z,101957.66
2018-12-27T10:24:21.642Z,101954.06
2018-12-27T10:26:50.430Z,101950.42
2018-12-27T10:29:19.218Z,101945.64
2018-12-27T10:31:48.010Z,101951.17
2018-12-27T10:34:16.693Z,101942.28
2018-12-27T10:36:45.480Z,101947.08
2018-12-27T10:39:14.487Z,101946.06
2018-12-27T10:41:43.162Z,101945.77
2018-12-27T10:44:11.947Z,101940.14
2018-12-27T10:46:40.735Z,101936.20
2018-12-27T10:49:09.429Z,101937.39
2018-12-27T10:51:38.210Z,101936.92
2018-12-27T10:54:07.105Z,101932.84
2018-12-27T10:56:35.788Z,101920.87
2018-12-27T10:59:04.575Z,101911.22
2018-12-27T11:01:33.362Z,101915.30
2018-12-27T11:04:02.152Z,101923.23
2018-12-27T11:06:30.937Z,101908.80
2018-12-27T11:08:59.628Z,101913.58
2018-12-27T11:11:28.411Z,101906.08
2018-12-27T11:13:57.105Z,101905.31
2018-12-27T11:16:25.886Z,101893.81
2018-12-27T11:18:54.674Z,101892.16
2018-12-27T11:21:23.462Z,101888.14
2018-12-27T11:23:52.250Z,101887.66
2018-12-27T11:26:21.038Z,101883.14
2018-12-27T11:28:49.723Z,101881.86
2018-12-27T11:31:18.511Z,101884.81
2018-12-27T11:33:47.299Z,101874.39
2018-12-27T11:36:17.442Z,101884.36
2018-12-27T11:38:46.410Z,101878.44
2018-12-27T11:41:15.205Z,101880.34
2018-12-27T11:43:43.991Z,101869.44
2018-12-27T11:46:12.775Z,101866.56
2018-12-27T11:48:41.468Z,101865.91
2018-12-27T11:51:10.250Z,101869.11
2018-12-27T11:53:39.045Z,101869.17
2018-12-27T11:56:07.827Z,101866.56
2018-12-27T11:58:36.618Z,101871.89
2018-12-27T12:01:05.407Z,101875.33
2018-12-27T12:03:34.189Z,101875.20
2018-12-27T12:06:03.644Z,101883.78
2018-12-27T12:08:32.509Z,101879.81
2018-12-27T12:11:01.273Z,101883.03
2018-12-27T12:13:30.059Z,101888.12
2018-12-27T12:15:58.847Z,101884.66
2018-12-27T12:18:27.635Z,101884.39
2018-12-27T12:20:56.635Z,101881.75
2018-12-27T12:23:25.417Z,101876.44
2018-12-27T12:25:55.215Z,101875.80
2018-12-27T12:28:24.119Z,101870.77
2018-12-27T12:30:52.804Z,101874.78
2018-12-27T12:33:21.591Z,101875.49
2018-12-27T12:35:50.279Z,101867.79
2018-12-27T12:38:19.067Z,101860.50
2018-12-27T12:40:47.854Z,101865.59
2018-12-27T12:43:16.544Z,101863.70
2018-12-27T12:45:45.328Z,101867.32
2018-12-27T12:48:14.119Z,101864.17
2018-12-27T12:50:42.907Z,101863.07
2018-12-27T12:53:11.696Z,101857.91
2018-12-27T12:55:41.506Z,101856.36
2018-12-27T12:58:10.300Z,101854.70
2018-12-27T13:00:38.979Z,101849.95
2018-12-27T13:03:07.768Z,101854.34
2018-12-27T13:05:36.452Z,101856.23
2018-12-27T13:08:05.242Z,101856.08
2018-12-27T13:10:34.032Z,101856.61
2018-12-27T13:13:03.024Z,101856.20
2018-12-27T13:15:31.708Z,101859.75
2018-12-27T13:18:00.497Z,101854.52
2018-12-27T13:20:29.183Z,101856.13
2018-12-27T13:22:57.971Z,101855.29
2018-12-27T13:25:27.372Z,101852.69
2018-12-27T13:27:56.264Z,101852.05
2018-12-27T13:30:25.051Z,101845.30
2018-12-27T13:32:53.741Z,101852.45
2018-12-27T13:35:22.422Z,101849.43
2018-12-27T13:37:51.107Z,101854.84
2018-12-27T13:40:19.895Z,101844.22
2018-12-27T13:42:48.683Z,101853.47
2018-12-27T13:45:17.574Z,101851.63
2018-12-27T13:47:46.362Z,101852.17
2018-12-27T13:50:15.150Z,101856.19
2018-12-27T13:52:44.040Z,101857.95
2018-12-27T13:55:12.830Z,101855.52
2018-12-27T13:57:41.517Z,101854.59
2018-12-27T14:00:10.307Z,101851.88
2018-12-27T14:02:38.986Z,101859.09
2018-12-27T14:05:08.295Z,101858.15
2018-12-27T14:07:37.076Z,101858.55
2018-12-27T14:10:08.018Z,101855.12
2018-12-27T14:12:36.805Z,101853.27
2018-12-27T14:15:06.917Z,101853.86
2018-12-27T14:17:35.612Z,101854.58
2018-12-27T14:20:06.956Z,101849.44
2018-12-27T14:22:35.745Z,101858.13
2018-12-27T14:25:04.536Z,101849.86
2018-12-27T14:27:33.219Z,101848.83
2018-12-27T14:30:02.007Z,101849.53
2018-12-27T14:32:30.695Z,101848.88
2018-12-27T14:34:59.480Z,101852.87
2018-12-27T14:37:28.166Z,101853.97
2018-12-27T14:39:56.955Z,101861.16
2018-12-27T14:42:25.743Z,101854.68
2018-12-27T14:44:54.531Z,101851.08
2018-12-27T14:47:23.421Z,101859.06
2018-12-27T14:49:52.107Z,101856.16
2018-12-27T14:52:20.903Z,101864.98
2018-12-27T14:54:49.691Z,101857.91
2018-12-27T14:57:18.472Z,101853.59
2018-12-27T14:59:47.566Z,101851.70
2018-12-27T15:02:16.253Z,101858.20
2018-12-27T15:04:44.937Z,101855.09
2018-12-27T15:07:13.727Z,101847.92
2018-12-27T15:09:42.514Z,101854.13
2018-12-27T15:12:11.301Z,101852.45
2018-12-27T15:14:39.990Z,101857.09
2018-12-27T15:17:08.779Z,101855.72
2018-12-27T15:19:37.460Z,101850.13
2018-12-27T15:22:06.249Z,101850.71
2018-12-27T15:24:35.037Z,101843.31
2018-12-27T15:27:03.826Z,101839.52
2018-12-27T15:29:32.659Z,101853.27
2018-12-27T15:32:01.504Z,101848.77
2018-12-27T15:34:30.293Z,101853.69
2018-12-27T15:36:59.181Z,101845.73
2018-12-27T15:39:27.869Z,101845.27
2018-12-27T15:41:56.656Z,101842.93
2018-12-27T15:44:25.446Z,101838.28
2018-12-27T15:46:54.232Z,101839.16
2018-12-27T15:49:23.022Z,101840.11
2018-12-27T15:51:51.809Z,101833.95
2018-12-27T15:54:20.495Z,101833.83
2018-12-27T15:56:49.284Z,101832.06
2018-12-27T15:59:17.969Z,101831.59
2018-12-27T16:01:46.862Z,101836.20
2018-12-27T16:04:15.545Z,101835.92
2018-12-27T16:06:44.335Z,101832.24
2018-12-27T16:09:13.123Z,101839.23
2018-12-27T16:11:41.912Z,101836.87
2018-12-27T16:14:10.699Z,101834.78
2018-12-27T16:16:39.487Z,101836.00
2018-12-27T16:19:08.275Z,101837.41
2018-12-27T16:21:37.066Z,101838.89
2018-12-27T16:24:06.159Z,101836.27
2018-12-27T16:26:34.843Z,101834.38
2018-12-27T16:29:03.634Z,101835.16
2018-12-27T16:31:32.425Z,101834.38
2018-12-27T16:34:01.209Z,101836.53
2018-12-27T16:36:29.996Z,101844.82
2018-12-27T16:38:58.864Z,101844.22
2018-12-27T16:41:27.676Z,101838.97
2018-12-27T16:43:56.361Z,101837.59
2018-12-27T16:46:25.148Z,101837.63
2018-12-27T16:48:53.936Z,101829.66
2018-12-27T16:51:22.724Z,101827.93
2018-12-27T16:53:51.513Z,101828.64
2018-12-27T16:56:20.300Z,101828.19
2018-12-27T16:58:49.092Z,101825.15
2018-12-27T17:01:17.877Z,101813.95
2018-12-27T17:03:46.669Z,101814.45
2018-12-27T17:06:15.353Z,101816.15
2018-12-27T17:08:44.038Z,101806.92
2018-12-27T17:11:12.824Z,101809.27
2018-12-27T17:13:41.612Z,101812.71
2018-12-27T17:16:10.404Z,101818.88
2018-12-27T17:18:39.190Z,101819.98
2018-12-27T17:21:07.977Z,101812.84
2018-12-27T17:23:36.765Z,101811.55
2018-12-27T17:26:05.555Z,101814.73
2018-12-27T17:28:34.242Z,101813.90
2018-12-27T17:31:02.926Z,101811.30
2018-12-27T17:33:31.816Z,101804.92
2018-12-27T17:36:00.501Z,101808.63
2018-12-27T17:38:29.289Z,101811.05
2018-12-27T17:40:57.981Z,101806.63
2018-12-27T17:43:26.763Z,101803.90
2018-12-27T17:45:55.453Z,101799.52
2018-12-27T17:48:24.453Z,101797.62
2018-12-27T17:50:53.128Z,101800.88
2018-12-27T17:53:21.916Z,101801.34
2018-12-27T17:55:50.602Z,101795.43
2018-12-27T17:58:19.389Z,101791.56
2018-12-27T18:00:48.178Z,101794.67
2018-12-27T18:03:16.966Z,101800.42
2018-12-27T18:05:45.753Z,101791.39
2018-12-27T18:08:14.545Z,101795.50
2018-12-27T18:10:43.230Z,101798.20
2018-12-27T18:13:12.016Z,101794.91
2018-12-27T18:15:40.597Z,101795.42
2018-12-27T18:18:09.386Z,101793.01
2018-12-27T18:20:38.075Z,101798.08
2018-12-27T18:23:06.863Z,101788.20
2018-12-27T18:25:35.651Z,101789.80
2018-12-27T18:28:04.439Z,101789.03
2018-12-27T18:30:33.227Z,101800.58
2018-12-27T18:33:02.015Z,101797.62
2018-12-27T18:35:30.700Z,101791.77
2018-12-27T18:37:59.488Z,101791.76
2018-12-27T18:40:28.174Z,101792.36
2018-12-27T18:42:56.960Z,101795.43
2018-12-27T18:45:25.751Z,101801.30
2018-12-27T18:47:54.537Z,101799.06
2018-12-27T18:50:23.326Z,101804.13
2018-12-27T18:52:55.030Z,101795.73
2018-12-27T18:55:23.769Z,101795.89
2018-12-27T18:57:52.560Z,101801.19
2018-12-27T19:00:21.259Z,101801.48
2018-12-27T19:02:50.030Z,101799.29
2018-12-27T19:05:18.819Z,101799.17
2018-12-27T19:07:47.611Z,101794.67
2018-12-27T19:10:16.395Z,101792.52
2018-12-27T19:13:03.427Z,101797.09
2018-12-27T19:15:37.093Z,101790.92
2018-12-27T19:18:09.280Z,101801.89
2018-12-27T19:20:40.629Z,101803.80
2018-12-27T19:23:12.593Z,101804.73
2018-12-27T19:25:41.380Z,101812.95
2018-12-27T19:28:10.168Z,101805.69
2018-12-27T19:30:39.356Z,101808.11
2018-12-27T19:33:08.192Z,101812.19
2018-12-27T19:35:37.150Z,101812.34
2018-12-27T19:38:05.935Z,101820.06
2018-12-27T19:40:34.721Z,101815.56
2018-12-27T19:43:03.424Z,101821.54
2018-12-27T19:45:32.198Z,101819.98
2018-12-27T19:48:00.991Z,101817.86
2018-12-27T19:50:29.775Z,101824.38
2018-12-27T19:52:58.562Z,101831.72
2018-12-27T19:55:27.355Z,101829.02
2018-12-27T19:57:56.139Z,101820.70
2018-12-27T20:00:25.028Z,101829.17
2018-12-27T20:02:53.721Z,101823.58
2018-12-27T20:05:22.508Z,101826.45
2018-12-27T20:07:51.290Z,101835.88
2018-12-27T20:10:20.077Z,101828.77
2018-12-27T20:12:48.763Z,101825.20
2018-12-27T20:15:17.553Z,101825.23
2018-12-27T20:17:46.340Z,101827.36
2018-12-27T20:20:15.435Z,101827.06
2018-12-27T20:22:44.137Z,101838.59
2018-12-27T20:25:12.911Z,101834.80
2018-12-27T20:27:41.719Z,101837.54
2018-12-27T20:30:10.486Z,101836.22
2018-12-27T20:32:39.273Z,101834.20
2018-12-27T20:35:08.063Z,101829.01
2018-12-27T20:37:36.851Z,101834.20
2018-12-27T20:40:05.947Z,101836.70
2018-12-27T20:42:34.731Z,101831.44
2018-12-27T20:45:03.545Z,101833.40
2018-12-27T20:47:32.308Z,101826.73
2018-12-27T20:50:01.199Z,101831.13
2018-12-27T20:52:30.399Z,101825.34
2018-12-27T20:54:59.082Z,101821.14
2018-12-27T20:57:27.871Z,101817.27
2018-12-27T20:59:56.660Z,101813.08
2018-12-27T21:02:25.447Z,101809.05
2018-12-27T21:04:54.135Z,101811.41
2018-12-27T21:07:22.921Z,101799.69
2018-12-27T21:09:51.606Z,101801.78
2018-12-27T21:12:20.394Z,101805.77
2018-12-27T21:14:49.183Z,101802.41
2018-12-27T21:17:17.971Z,101803.53
2018-12-27T21:19:46.758Z,101806.02
2018-12-27T21:22:15.546Z,101804.19
2018-12-27T21:24:44.335Z,101804.08
2018-12-27T21:27:13.122Z,101794.06
2018-12-27T21:29:41.808Z,101802.83
2018-12-27T21:32:10.601Z,101796.13
2018-12-27T21:34:39.385Z,101796.20
2018-12-27T21:37:08.172Z,101796.88
2018-12-27T21:39:36.971Z,101801.34
2018-12-27T21:42:05.750Z,101797.78
2018-12-27T21:44:34.536Z,101803.05
2018-12-27T21:47:03.325Z,101793.31
2018-12-27T21:49:32.019Z,101792.95
2018-12-27T21:52:00.800Z,101795.89
2018-12-27T21:54:29.691Z,101794.30
2018-12-27T21:56:58.390Z,101795.44
2018-12-27T21:59:27.064Z,101792.11
2018-12-27T22:01:56.055Z,101788.41
2018-12-27T22:04:24.843Z,101785.53
2018-12-27T22:06:53.634Z,101779.98
2018-12-27T22:09:22.417Z,101780.92
2018-12-27T22:11:51.209Z,101770.17
2018-12-27T22:14:19.999Z,101762.39
2018-12-27T22:16:48.784Z,101763.04
2018-12-27T22:19:18.496Z,101760.30
2018-12-27T22:21:47.281Z,101767.69
2018-12-27T22:24:16.074Z,101762.40
2018-12-27T22:26:44.857Z,101768.08
2018-12-27T22:29:13.648Z,101758.31
2018-12-27T22:31:42.434Z,101762.81
2018-12-27T22:34:11.220Z,101752.45
2018-12-27T22:36:40.933Z,101755.66
2018-12-27T22:39:09.720Z,101749.20
2018-12-27T22:41:39.740Z,101758.30
2018-12-27T22:44:09.442Z,101758.31
2018-12-27T22:46:38.029Z,101764.47
2018-12-27T22:49:06.818Z,101762.39
2018-12-27T22:51:35.607Z,101758.53
2018-12-27T22:54:04.291Z,101752.71
2018-12-27T22:56:33.083Z,101761.56
2018-12-27T22:59:01.768Z,101763.98
2018-12-27T23:01:30.552Z,101759.14
2018-12-27T23:03:59.244Z,101757.18
2018-12-27T23:06:28.028Z,101757.59
2018-12-27T23:08:56.918Z,101758.09
2018-12-27T23:11:25.704Z,101762.59
2018-12-27T23:13:54.493Z,101768.44
2018-12-27T23:16:23.243Z,101761.04
2018-12-27T23:18:51.967Z,101759.60
2018-12-27T23:21:20.655Z,101765.34
2018-12-27T23:23:49.442Z,101755.36
2018-12-27T23:26:18.127Z,101748.14
2018-12-27T23:28:46.915Z,101746.66
2018-12-27T23:31:15.602Z,101744.40
2018-12-27T23:33:44.287Z,101749.50
2018-12-27T23:36:12.972Z,101739.48
2018-12-27T23:38:41.761Z,101736.00
2018-12-27T23:41:10.553Z,101737.66
2018-12-27T23:43:40.054Z,101737.70
2018-12-27T23:46:08.639Z,101733.20
2018-12-27T23:48:37.425Z,101726.28
2018-12-27T23:51:06.213Z,101717.13
2018-12-27T23:53:35.001Z,101722.27
2018-12-27T23:56:03.688Z,101722.91
2018-12-27T23:58:32.475Z,101725.15
